Terminal Aerodrome Forecast
Issued by NWS

Home | Current Version | Previous Version | Text Only | Print | Product List | Glossary On
Versions: 1 2 3 4 5 6 7 8 9 10 11 12 13 14 15 16 17 18 19 20 21 22 23 24 25 26 27 28 29 30 31 32 33 34 35 36 37 38 39 40 41 42 43 44 45 46
000
FTUS45 KREV 221739
TAFTRK
TAF
KTRK 221739Z 2218/2318 21006KT P6SM FEW040 SCT080
     FM221900 25010G16KT P6SM SCT025 BKN040
     FM230200 20004KT P6SM VCSH SCT040 BKN070
     FM230900 VRB03KT 1SM BR SCT006 OVC020=

USA.gov is the U.S. government's official web portal to all federal, state and local government web resources and services.